Time;durP1;ratioP1;P1;durP2;ratioP2;P2;SDS_P1;SDS_P2;PMS_P1;PMS_P2;Temp;Humidity;BMP_temperature;BMP_pressure;BME280_temperature;BME280_humidity;BME280_pressure;Samples;Min_cycle;Max_cycle;Signal;HPM_P1;HPM_P2
2022/04/11 00:02:03;;;;;;;172.90;70.40;;;0.80;99.90;;;;;;5095238;28;20028;-52
2022/04/11 00:04:30;;;;;;;191.52;76.38;;;0.70;99.90;;;;;;5075075;28;20040;-52
2022/04/11 00:06:56;;;;;;;206.32;79.43;;;0.70;99.90;;;;;;5075273;28;20111;-52
2022/04/11 00:09:21;;;;;;;212.75;82.38;;;0.60;99.90;;;;;;5075175;28;20519;-52
2022/04/11 00:11:48;;;;;;;253.15;92.45;;;0.60;99.90;;;;;;5074924;28;20119;-52
2022/04/11 00:14:14;;;;;;;251.57;94.53;;;0.60;99.90;;;;;;5075100;28;20047;-52
2022/04/11 00:16:40;;;;;;;232.35;87.32;;;0.60;99.90;;;;;;5074931;28;20044;-52
2022/04/11 00:19:08;;;;;;;213.07;77.95;;;0.60;99.90;;;;;;5074715;28;20457;-52
2022/04/11 00:21:35;;;;;;;187.68;74.85;;;0.60;99.90;;;;;;5091007;28;20020;-52
2022/04/11 00:24:01;;;;;;;187.30;71.13;;;0.60;99.90;;;;;;5095281;28;20028;-52
2022/04/11 00:26:27;;;;;;;166.45;65.53;;;0.70;99.90;;;;;;5095021;28;20035;-52
2022/04/11 00:28:53;;;;;;;162.18;64.88;;;0.70;99.90;;;;;;5076923;28;20031;-52
2022/04/11 00:31:19;;;;;;;144.43;59.35;;;0.70;99.90;;;;;;5095000;28;20085;-52
2022/04/11 00:33:45;;;;;;;161.60;65.72;;;0.60;99.90;;;;;;5076621;28;20024;-52
2022/04/11 00:36:11;;;;;;;146.55;60.40;;;0.60;99.90;;;;;;5095046;28;20039;-52
2022/04/11 00:38:38;;;;;;;139.63;60.30;;;0.60;99.90;;;;;;5094362;28;20067;-52
2022/04/11 00:41:04;;;;;;;135.40;57.80;;;0.60;99.90;;;;;;5094797;28;20054;-52
2022/04/11 00:43:31;;;;;;;130.63;57.33;;;0.60;99.90;;;;;;5094865;28;20451;-52
2022/04/11 00:45:57;;;;;;;126.57;53.33;;;0.60;99.90;;;;;;5076846;28;20205;-52
2022/04/11 00:48:23;;;;;;;181.48;68.45;;;0.50;99.90;;;;;;5094788;28;20118;-52
2022/04/11 00:50:52;;;;;;;180.00;66.47;;;0.40;99.90;;;;;;5094795;28;20039;-52
2022/04/11 00:53:18;;;;;;;165.45;63.65;;;0.40;99.90;;;;;;5094749;28;20032;-52
2022/04/11 00:55:46;;;;;;;165.60;66.07;;;0.30;99.90;;;;;;5076576;28;20059;-52
2022/04/11 00:58:12;;;;;;;163.20;63.63;;;0.30;99.90;;;;;;5094802;28;20062;-52
2022/04/11 01:00:40;;;;;;;164.93;68.38;;;0.30;99.90;;;;;;5094559;28;20108;-52
2022/04/11 01:03:06;;;;;;;155.82;65.60;;;0.20;99.90;;;;;;5081179;28;20040;-52
2022/04/11 01:05:32;;;;;;;156.05;65.20;;;0.20;99.90;;;;;;5069746;28;20398;-52
2022/04/11 01:08:05;;;;;;;156.68;66.20;;;0.30;99.90;;;;;;5074277;28;20033;-52
2022/04/11 01:10:31;;;;;;;149.82;61.20;;;0.30;99.90;;;;;;5056180;28;20401;-52
2022/04/11 01:12:57;;;;;;;159.57;64.57;;;0.40;99.90;;;;;;5056329;28;20111;-52
2022/04/11 01:15:23;;;;;;;156.02;61.78;;;0.30;99.90;;;;;;5056086;28;20052;-53
2022/04/11 01:17:50;;;;;;;187.05;68.65;;;0.30;99.90;;;;;;5074451;28;20398;-52
2022/04/11 01:20:16;;;;;;;157.15;63.08;;;0.30;99.90;;;;;;5056116;28;20033;-52
2022/04/11 01:22:43;;;;;;;161.35;64.63;;;0.30;99.90;;;;;;5056271;28;20036;-52
2022/04/11 01:25:13;;;;;;;163.77;67.50;;;0.30;99.90;;;;;;5094439;28;20032;-52
2022/04/11 01:27:42;;;;;;;199.50;79.32;;;0.20;99.90;;;;;;5076173;28;20111;-52
2022/04/11 01:30:12;;;;;;;311.70;108.05;;;0.20;99.90;;;;;;5076282;28;20032;-52
2022/04/11 01:32:42;;;;;;;352.27;116.70;;;0.20;99.90;;;;;;5076350;28;20093;-52
2022/04/11 01:35:19;;;;;;;213.35;82.97;;;0.10;99.90;;;;;;5092943;28;20036;-52
2022/04/11 01:37:45;;;;;;;186.57;79.55;;;0.20;99.90;;;;;;5076075;28;20055;-52
2022/04/11 01:40:11;;;;;;;195.50;86.70;;;0.20;99.90;;;;;;5076202;28;20028;-52
2022/04/11 01:42:38;;;;;;;190.55;82.28;;;0.20;99.90;;;;;;5094128;28;20077;-52
2022/04/11 01:45:09;;;;;;;174.63;72.28;;;0.30;99.90;;;;;;5076136;28;20030;-52
2022/04/11 01:47:35;;;;;;;169.43;70.07;;;0.30;99.90;;;;;;5075910;28;20036;-52
2022/04/11 01:50:02;;;;;;;167.73;69.35;;;0.20;99.90;;;;;;5078261;28;20111;-52
2022/04/11 01:52:28;;;;;;;169.40;68.50;;;0.20;99.90;;;;;;5079771;28;20119;-52
2022/04/11 01:54:54;;;;;;;232.98;88.18;;;0.10;99.90;;;;;;5098011;28;20054;-52
2022/04/11 01:57:20;;;;;;;251.25;92.90;;;0.10;99.90;;;;;;5097947;28;20032;-52
2022/04/11 01:59:46;;;;;;;259.13;96.28;;;0.00;99.90;;;;;;5079478;28;20027;-52
2022/04/11 02:02:12;;;;;;;237.55;86.40;;;0.00;99.90;;;;;;5078554;28;20119;-52
2022/04/11 02:04:38;;;;;;;226.10;88.05;;;0.10;99.90;;;;;;5077546;28;20024;-52
2022/04/11 02:07:04;;;;;;;220.52;88.18;;;0.10;99.90;;;;;;5059327;28;20393;-52
2022/04/11 02:09:30;;;;;;;220.23;89.22;;;0.10;99.90;;;;;;5077352;28;20492;-52
2022/04/11 02:11:56;;;;;;;209.90;86.68;;;0.10;99.90;;;;;;5059209;28;20040;-52
2022/04/11 02:14:24;;;;;;;224.70;91.40;;;0.00;99.90;;;;;;5059012;28;20120;-52
2022/04/11 02:16:50;;;;;;;227.93;94.00;;;0.10;99.90;;;;;;5046889;28;20084;-52
2022/04/11 02:19:16;;;;;;;204.38;90.15;;;0.00;99.90;;;;;;5058920;28;20021;-52
2022/04/11 02:21:42;;;;;;;212.00;92.60;;;0.00;99.90;;;;;;5059319;28;20029;-52
2022/04/11 02:24:08;;;;;;;194.10;85.30;;;-0.10;99.90;;;;;;5077149;28;20036;-52
2022/04/11 02:26:34;;;;;;;256.08;107.60;;;-0.10;99.90;;;;;;5059125;28;20486;-52
2022/04/11 02:29:00;;;;;;;342.98;138.25;;;-0.10;99.90;;;;;;5077022;28;20032;-52
2022/04/11 02:31:26;;;;;;;335.38;133.45;;;-0.10;99.90;;;;;;5077283;28;20084;-52
2022/04/11 02:33:52;;;;;;;357.90;140.70;;;0.00;99.90;;;;;;5075591;28;20037;-52
2022/04/11 02:36:18;;;;;;;339.00;135.68;;;0.00;99.90;;;;;;5075595;28;20020;-52
2022/04/11 02:38:45;;;;;;;245.00;109.38;;;0.00;99.90;;;;;;5075695;28;20143;-52
2022/04/11 02:41:11;;;;;;;267.70;117.60;;;0.00;99.90;;;;;;5058818;28;20490;-52
2022/04/11 02:43:49;;;;;;;325.58;133.35;;;0.00;99.90;;;;;;5076661;28;20048;-52
2022/04/11 02:46:16;;;;;;;248.82;108.18;;;-0.10;99.90;;;;;;5075651;28;20024;-52
2022/04/11 02:48:42;;;;;;;270.95;115.75;;;0.00;99.90;;;;;;5058508;28;20067;-52
2022/04/11 02:51:24;;;;;;;271.58;117.85;;;0.00;99.90;;;;;;5058686;28;20028;-52
2022/04/11 02:54:07;;;;;;;282.30;120.32;;;0.00;99.90;;;;;;5058451;28;20028;-52
2022/04/11 02:56:34;;;;;;;266.88;113.78;;;0.00;99.90;;;;;;5075076;28;20016;-52
2022/04/11 02:59:01;;;;;;;276.35;116.95;;;0.00;99.90;;;;;;5058491;28;20028;-52
2022/04/11 03:01:29;;;;;;;279.05;118.00;;;0.00;99.90;;;;;;5058051;28;20028;-55
2022/04/11 03:03:56;;;;;;;234.60;103.72;;;0.00;99.90;;;;;;5043084;28;20112;-52
2022/04/11 03:06:28;;;;;;;244.20;103.80;;;0.00;99.90;;;;;;5038372;28;20438;-52
2022/04/11 03:08:54;;;;;;;255.75;105.85;;;-0.10;99.90;;;;;;5056366;28;20119;-52
2022/04/11 03:11:28;;;;;;;254.13;107.18;;;-0.20;99.90;;;;;;5038353;28;20025;-52
2022/04/11 03:13:54;;;;;;;228.98;101.97;;;-0.10;99.90;;;;;;5038180;28;20121;-52
2022/04/11 03:16:20;;;;;;;229.13;101.72;;;-0.20;99.90;;;;;;5051109;28;20045;-52
2022/04/11 03:18:48;;;;;;;240.00;104.90;;;-0.20;99.90;;;;;;5074901;28;20028;-52
2022/04/11 03:21:15;;;;;;;229.02;101.47;;;-0.20;99.90;;;;;;5074780;28;20031;-52
2022/04/11 03:23:46;;;;;;;216.00;98.88;;;-0.30;99.90;;;;;;5074777;28;20115;-52
2022/04/11 03:26:12;;;;;;;211.10;98.07;;;-0.20;99.90;;;;;;5075002;28;20044;-52
2022/04/11 03:28:39;;;;;;;218.25;95.20;;;-0.30;99.90;;;;;;5074827;28;20481;-52
2022/04/11 03:31:06;;;;;;;231.20;101.80;;;-0.20;99.90;;;;;;5074634;28;20420;-52
2022/04/11 03:33:32;;;;;;;217.13;99.18;;;-0.20;99.90;;;;;;5075949;28;20024;-52
2022/04/11 03:35:59;;;;;;;201.35;92.97;;;-0.30;99.90;;;;;;5074493;28;20381;-52
2022/04/11 03:38:25;;;;;;;198.00;89.78;;;-0.30;99.90;;;;;;5074481;28;20025;-52
2022/04/11 03:40:53;;;;;;;203.40;93.53;;;-0.30;99.90;;;;;;5074623;28;20025;-52
2022/04/11 03:43:20;;;;;;;285.35;119.75;;;-0.40;99.90;;;;;;5074418;28;20039;-52
2022/04/11 03:45:46;;;;;;;240.45;105.55;;;-0.30;99.90;;;;;;5074256;28;20494;-52
2022/04/11 03:48:15;;;;;;;243.88;106.70;;;-0.30;99.90;;;;;;5074152;28;20028;-52
2022/04/11 03:50:42;;;;;;;284.52;122.13;;;-0.30;99.90;;;;;;5074393;28;20043;-52
2022/04/11 03:53:08;;;;;;;224.85;96.63;;;-0.30;99.90;;;;;;5074132;28;20136;-52
2022/04/11 03:55:37;;;;;;;209.18;88.10;;;-0.30;99.90;;;;;;5074141;28;20297;-52
2022/04/11 03:58:04;;;;;;;222.05;94.57;;;-0.20;99.90;;;;;;5075547;28;20047;-52
2022/04/11 04:00:34;;;;;;;208.93;94.13;;;-0.30;99.90;;;;;;5073832;28;20553;-52
2022/04/11 04:03:23;;;;;;;218.88;94.20;;;-0.40;99.90;;;;;;5075341;28;20112;-52
2022/04/11 04:06:02;;;;;;;217.15;95.18;;;-0.30;99.90;;;;;;5073899;28;20040;-52
2022/04/11 04:08:34;;;;;;;221.95;94.40;;;-0.30;99.90;;;;;;5073875;28;20104;-52
2022/04/11 04:11:07;;;;;;;239.48;101.15;;;-0.30;99.90;;;;;;5073573;28;20058;-52
2022/04/11 04:13:34;;;;;;;218.48;93.22;;;-0.40;99.90;;;;;;5089995;28;20020;-52
2022/04/11 04:16:01;;;;;;;202.73;87.38;;;-0.40;99.90;;;;;;5073523;28;20361;-52
2022/04/11 04:18:27;;;;;;;212.73;89.85;;;-0.40;99.90;;;;;;5073792;28;20055;-52
2022/04/11 04:20:56;;;;;;;215.88;90.13;;;-0.40;99.90;;;;;;5073739;28;20028;-52
2022/04/11 04:23:22;;;;;;;191.80;86.50;;;-0.40;99.90;;;;;;5073535;28;20035;-52
2022/04/11 04:25:48;;;;;;;187.23;89.13;;;-0.40;99.90;;;;;;5074905;28;20032;-52
2022/04/11 04:28:17;;;;;;;190.65;80.00;;;-0.40;99.90;;;;;;5073589;28;20086;-52
2022/04/11 04:30:45;;;;;;;167.30;77.53;;;-0.20;99.90;;;;;;5073749;28;20081;-52
2022/04/11 04:33:12;;;;;;;155.98;76.47;;;-0.20;99.90;;;;;;5073457;28;20035;-52
2022/04/11 04:35:39;;;;;;;159.88;71.72;;;-0.20;99.90;;;;;;5074613;28;20025;-52
2022/04/11 04:38:09;;;;;;;173.05;77.20;;;-0.20;99.90;;;;;;5073384;28;20036;-52
2022/04/11 04:40:44;;;;;;;159.18;72.28;;;-0.10;99.90;;;;;;5073502;28;20025;-52
2022/04/11 04:43:12;;;;;;;176.68;80.80;;;0.00;99.90;;;;;;5073125;28;20050;-52
2022/04/11 04:45:39;;;;;;;178.40;77.80;;;0.00;99.90;;;;;;5073231;28;20489;-52
2022/04/11 04:48:18;;;;;;;170.55;77.20;;;0.10;99.90;;;;;;5073170;28;20037;-52
2022/04/11 04:50:44;;;;;;;171.50;76.38;;;0.30;99.90;;;;;;5073061;28;20029;-52
2022/04/11 04:53:14;;;;;;;166.80;74.93;;;0.40;99.90;;;;;;5073265;28;20124;-52
2022/04/11 04:55:40;;;;;;;170.82;75.68;;;0.40;99.90;;;;;;5073259;28;20033;-52
2022/04/11 04:58:08;;;;;;;153.25;70.82;;;0.50;99.90;;;;;;5072999;28;20029;-52
2022/04/11 05:00:34;;;;;;;173.60;75.05;;;0.60;99.90;;;;;;5073301;28;20028;-52
2022/04/11 05:03:00;;;;;;;157.20;71.10;;;0.80;99.90;;;;;;5072781;28;20024;-52
2022/04/11 05:05:26;;;;;;;177.80;81.28;;;0.90;99.90;;;;;;5072743;28;20102;-52
2022/04/11 05:07:56;;;;;;;177.95;85.72;;;0.90;99.90;;;;;;5073199;28;20115;-52
2022/04/11 05:10:26;;;;;;;166.85;81.60;;;1.10;99.90;;;;;;5072636;28;20031;-53
2022/04/11 05:12:53;;;;;;;153.05;71.97;;;1.20;99.90;;;;;;5106032;28;20044;-52
2022/04/11 05:15:20;;;;;;;160.35;71.70;;;1.40;99.90;;;;;;5072491;28;20494;-52
2022/04/11 05:17:53;;;;;;;161.38;72.03;;;1.60;99.90;;;;;;5092032;28;20041;-53
2022/04/11 05:20:21;;;;;;;162.43;74.25;;;1.70;99.90;;;;;;5074924;28;20024;-52
2022/04/11 05:22:47;;;;;;;157.70;69.85;;;1.90;99.90;;;;;;5062408;28;20029;-53
2022/04/11 05:25:16;;;;;;;151.68;68.20;;;1.90;99.90;;;;;;5068812;28;20048;-53
2022/04/11 05:27:42;;;;;;;145.10;66.43;;;1.90;99.90;;;;;;5073829;28;20028;-53
2022/04/11 05:30:09;;;;;;;133.45;62.75;;;2.10;99.90;;;;;;5070292;28;20051;-53
2022/04/11 05:32:37;;;;;;;141.63;62.88;;;2.30;99.90;;;;;;5087608;28;20119;-54
2022/04/11 05:35:04;;;;;;;144.90;62.95;;;2.50;99.90;;;;;;5073533;28;20524;-66
2022/04/11 05:37:30;;;;;;;139.90;66.05;;;2.60;99.90;;;;;;5072853;28;20044;-66
2022/04/11 05:39:56;;;;;;;130.38;61.80;;;2.90;99.90;;;;;;5067111;28;20040;-66
2022/04/11 05:42:24;;;;;;;155.55;67.00;;;3.00;99.90;;;;;;5065104;28;20996;-66
2022/04/11 05:44:51;;;;;;;143.10;63.42;;;3.10;99.90;;;;;;5081832;28;20118;-67
2022/04/11 05:47:18;;;;;;;149.65;65.35;;;3.30;99.90;;;;;;5067306;28;20045;-66
2022/04/11 05:49:50;;;;;;;128.48;61.55;;;3.40;99.90;;;;;;5085484;28;20124;-66
2022/04/11 05:52:18;;;;;;;127.25;60.55;;;3.60;99.90;;;;;;5062697;28;20036;-66
2022/04/11 05:54:45;;;;;;;122.57;61.45;;;3.80;99.90;;;;;;5073936;28;20083;-67
2022/04/11 05:57:12;;;;;;;121.65;56.50;;;4.00;99.90;;;;;;5082930;28;20386;-66
2022/04/11 05:59:38;;;;;;;131.45;60.70;;;4.30;99.90;;;;;;5095612;28;20029;-67
2022/04/11 06:02:04;;;;;;;125.40;60.40;;;4.40;99.90;;;;;;5058899;28;20017;-66
2022/04/11 06:04:31;;;;;;;132.25;61.70;;;4.60;99.90;;;;;;5070552;28;20025;-67
2022/04/11 06:06:57;;;;;;;139.95;62.28;;;4.60;99.90;;;;;;5057243;28;20490;-67
2022/04/11 06:09:23;;;;;;;119.53;57.38;;;4.80;99.90;;;;;;5072641;28;20036;-67
2022/04/11 06:11:50;;;;;;;145.70;60.72;;;5.10;99.90;;;;;;5079464;28;20028;-66
2022/04/11 06:14:16;;;;;;;135.73;60.00;;;5.40;99.90;;;;;;5045018;28;20033;-66
2022/04/11 06:16:43;;;;;;;138.30;58.03;;;5.60;99.90;;;;;;5055643;28;20049;-66
2022/04/11 06:19:09;;;;;;;121.47;56.95;;;5.80;99.90;;;;;;5077559;28;20330;-66
2022/04/11 06:21:35;;;;;;;124.75;57.28;;;6.10;99.90;;;;;;5069950;28;20021;-66
2022/04/11 06:24:02;;;;;;;136.15;60.45;;;6.30;99.90;;;;;;5073445;28;20366;-65
2022/04/11 06:26:28;;;;;;;107.15;52.70;;;6.60;99.90;;;;;;5105941;28;20032;-66
2022/04/11 06:28:55;;;;;;;128.13;58.08;;;6.80;99.90;;;;;;5067295;28;20024;-63
2022/04/11 06:31:21;;;;;;;122.15;54.00;;;7.00;99.90;;;;;;5084755;28;20063;-63
2022/04/11 06:33:52;;;;;;;112.05;53.00;;;7.30;99.90;;;;;;5091473;28;20036;-64
2022/04/11 06:36:20;;;;;;;106.72;47.42;;;7.40;99.90;;;;;;5074426;28;20478;-63
2022/04/11 06:38:46;;;;;;;122.13;51.83;;;7.70;99.90;;;;;;5092512;28;20036;-64
2022/04/11 06:41:13;;;;;;;128.68;51.10;;;7.90;99.90;;;;;;5089096;28;20119;-63
2022/04/11 06:43:39;;;;;;;112.57;49.40;;;8.10;99.90;;;;;;5083944;28;20478;-63
2022/04/11 06:46:17;;;;;;;112.45;49.88;;;8.40;99.90;;;;;;5069715;28;20371;-63
2022/04/11 06:48:43;;;;;;;107.97;46.55;;;8.50;99.90;;;;;;5067591;28;20359;-63
2022/04/11 06:51:09;;;;;;;97.68;44.13;;;8.80;99.90;;;;;;5101436;28;20028;-64
2022/04/11 06:53:35;;;;;;;91.45;41.75;;;8.90;99.90;;;;;;5067250;28;20017;-63
2022/04/11 06:56:01;;;;;;;93.50;40.60;;;9.10;99.90;;;;;;5059153;28;20071;-63
2022/04/11 06:58:27;;;;;;;90.38;44.30;;;9.50;99.90;;;;;;5075222;28;20056;-65
2022/04/11 07:00:54;;;;;;;86.80;39.28;;;9.60;99.90;;;;;;5076275;28;20066;-64
2022/04/11 07:03:19;;;;;;;88.07;37.35;;;9.70;99.90;;;;;;5076302;28;20024;-64
2022/04/11 07:05:45;;;;;;;52.28;26.20;;;10.10;99.90;;;;;;5075788;28;20033;-63
2022/04/11 07:08:11;;;;;;;69.57;26.60;;;10.00;96.10;;;;;;5071949;28;20032;-64
2022/04/11 07:10:40;;;;;;;59.25;28.67;;;10.10;97.70;;;;;;5059269;28;20545;-63
2022/04/11 07:13:06;;;;;;;57.30;25.75;;;10.30;97.00;;;;;;5058656;28;20406;-64
2022/04/11 07:15:32;;;;;;;48.53;24.48;;;10.70;94.80;;;;;;5075236;28;20082;-63
2022/04/11 07:18:04;;;;;;;49.67;22.60;;;10.90;95.20;;;;;;5061002;28;20090;-64
2022/04/11 07:20:31;;;;;;;57.10;25.27;;;11.00;93.20;;;;;;5059294;28;20493;-64
2022/04/11 07:22:57;;;;;;;56.85;25.98;;;11.30;95.40;;;;;;5047160;28;20056;-64
2022/04/11 07:25:24;;;;;;;36.53;18.92;;;11.50;94.30;;;;;;5052788;28;20087;-64
2022/04/11 07:27:51;;;;;;;32.45;17.85;;;11.90;92.70;;;;;;5050758;28;20029;-64
2022/04/11 07:30:17;;;;;;;37.92;17.33;;;12.00;86.60;;;;;;5052375;28;20040;-64
2022/04/11 07:32:43;;;;;;;38.90;18.58;;;12.00;88.30;;;;;;5072768;28;20025;-64
2022/04/11 07:35:09;;;;;;;30.05;17.15;;;12.00;93.20;;;;;;5041395;28;20467;-64
2022/04/11 07:49:06;;;;;;;29.05;11.50;;;12.10;79.90;;;;;;5035515;28;20083;-64
2022/04/11 07:51:32;;;;;;;22.67;10.73;;;12.60;80.70;;;;;;5044335;28;20033;-64
2022/04/11 07:53:58;;;;;;;22.92;11.57;;;12.70;71.10;;;;;;5035764;28;20066;-64
2022/04/11 07:56:24;;;;;;;20.95;10.65;;;12.50;79.80;;;;;;5045714;28;20028;-64
2022/04/11 07:58:50;;;;;;;23.30;11.95;;;12.60;70.50;;;;;;5042218;28;20020;-64
2022/04/11 08:01:16;;;;;;;26.58;12.00;;;13.00;76.40;;;;;;5053087;28;20037;-64
2022/04/11 08:03:44;;;;;;;24.83;11.45;;;12.90;61.60;;;;;;5043046;28;20032;-64
2022/04/11 08:06:10;;;;;;;24.80;10.50;;;13.00;70.40;;;;;;5046764;28;20040;-64
2022/04/11 08:08:37;;;;;;;20.60;10.93;;;13.20;72.60;;;;;;5050616;28;20063;-64
2022/04/11 08:11:03;;;;;;;17.65;10.20;;;13.60;64.90;;;;;;5060245;28;20123;-65
2022/04/11 08:13:29;;;;;;;24.67;10.20;;;13.40;57.20;;;;;;5051144;28;20029;-65
2022/04/11 08:15:56;;;;;;;17.45;8.95;;;13.80;63.70;;;;;;5069292;28;20050;-64
2022/04/11 08:18:22;;;;;;;18.10;9.98;;;13.70;62.00;;;;;;5086305;28;20020;-64
2022/04/11 08:20:48;;;;;;;16.33;9.68;;;13.60;55.60;;;;;;5082487;28;20039;-64
2022/04/11 08:23:14;;;;;;;18.95;10.60;;;13.70;64.80;;;;;;5092936;28;20470;-64
2022/04/11 08:25:40;;;;;;;26.25;11.15;;;14.20;58.50;;;;;;5070129;28;20028;-64
2022/04/11 08:28:06;;;;;;;23.55;11.80;;;14.10;58.00;;;;;;5091928;28;20039;-64
2022/04/11 08:30:32;;;;;;;25.10;10.88;;;14.50;55.30;;;;;;5084997;28;20021;-64
2022/04/11 08:32:58;;;;;;;27.90;9.82;;;14.70;51.40;;;;;;5083883;28;20039;-64
2022/04/11 08:35:25;;;;;;;17.95;7.20;;;15.10;53.10;;;;;;5053589;28;20048;-64
2022/04/11 08:37:51;;;;;;;10.85;6.70;;;14.30;47.40;;;;;;5075246;28;20416;-64
2022/04/11 08:40:21;;;;;;;16.73;6.85;;;13.60;50.40;;;;;;5081438;28;20035;-64
2022/04/11 08:42:48;;;;;;;16.20;7.75;;;13.60;54.10;;;;;;5088163;28;20027;-64
2022/04/11 08:45:15;;;;;;;18.17;7.80;;;14.20;51.00;;;;;;5066109;28;20029;-64
2022/04/11 08:47:42;;;;;;;15.35;6.63;;;14.70;55.60;;;;;;5062489;28;20036;-64
2022/04/11 08:50:09;;;;;;;12.00;6.78;;;14.80;49.50;;;;;;5058615;28;20028;-64
2022/04/11 08:52:37;;;;;;;18.40;7.25;;;14.30;49.50;;;;;;5067695;28;20047;-64
2022/04/11 08:55:04;;;;;;;13.23;7.28;;;14.50;49.80;;;;;;5066001;28;20036;-64
2022/04/11 08:57:30;;;;;;;11.07;6.35;;;14.70;53.20;;;;;;5071197;28;20025;-64
2022/04/11 09:00:03;;;;;;;17.20;6.32;;;14.90;45.90;;;;;;5065541;28;20028;-64
2022/04/11 09:02:34;;;;;;;11.13;5.68;;;15.10;52.80;;;;;;5061155;28;20027;-64
2022/04/11 09:05:00;;;;;;;;;;;14.30;48.10;;;;;;5074247;28;20039;-64
2022/04/11 09:07:27;;;;;;;13.00;6.75;;;13.80;48.60;;;;;;5073265;28;19904;-64
2022/04/11 09:10:00;;;;;;;20.50;8.32;;;13.80;50.80;;;;;;5069279;28;20036;-64
2022/04/11 09:12:26;;;;;;;17.80;8.40;;;14.20;51.40;;;;;;5064652;28;20074;-64
2022/04/11 09:14:56;;;;;;;19.40;7.18;;;14.60;52.20;;;;;;5062927;28;20031;-63
2022/04/11 09:17:24;;;;;;;14.13;6.85;;;14.40;48.40;;;;;;5063909;28;20075;-64
2022/04/11 09:20:10;;;;;;;13.80;6.47;;;14.40;50.90;;;;;;5065071;28;20101;-64
2022/04/11 09:22:36;;;;;;;14.23;6.20;;;14.60;50.00;;;;;;5049140;28;20032;-64
2022/04/11 09:25:14;;;;;;;13.05;6.38;;;15.20;45.70;;;;;;5071502;28;20035;-64
2022/04/11 09:27:44;;;;;;;7.93;4.75;;;15.70;46.10;;;;;;5062657;28;20037;-64
2022/04/11 09:30:31;;;;;;;10.45;4.60;;;15.70;44.70;;;;;;5070675;28;20389;-63
2022/04/11 09:32:57;;;;;;;5.45;2.40;;;16.00;44.90;;;;;;5099887;28;20036;-63
2022/04/11 09:35:26;;;;;;;7.68;3.00;;;15.90;39.60;;;;;;5090535;28;20032;-63
2022/04/11 09:38:14;;;;;;;11.05;2.72;;;15.20;38.60;;;;;;5091743;28;20028;-64
2022/04/11 09:40:50;;;;;;;4.68;2.40;;;15.50;40.30;;;;;;5082853;28;20035;-64
2022/04/11 09:43:26;;;;;;;6.95;3.65;;;15.60;36.60;;;;;;5081393;28;20545;-64
2022/04/11 09:45:53;;;;;;;8.35;3.90;;;15.70;43.00;;;;;;5086965;28;20067;-64
2022/04/11 09:48:35;;;;;;;6.28;3.30;;;15.10;43.50;;;;;;5087989;28;20029;-64
2022/04/11 09:51:09;;;;;;;12.43;4.38;;;15.10;45.10;;;;;;5087242;28;20071;-64
2022/04/11 09:53:35;;;;;;;7.53;3.33;;;15.00;45.90;;;;;;5074502;28;20435;-64
2022/04/11 09:56:08;;;;;;;5.78;3.33;;;15.10;47.20;;;;;;5067704;28;20032;-63
2022/04/11 09:58:39;;;;;;;6.47;3.17;;;15.40;44.40;;;;;;5086692;28;20481;-64
2022/04/11 10:01:07;;;;;;;7.30;3.53;;;15.30;41.20;;;;;;5092314;28;20119;-64
2022/04/11 10:03:35;;;;;;;7.63;3.13;;;15.30;45.60;;;;;;5073086;28;20030;-63
2022/04/11 10:06:03;;;;;;;11.40;3.28;;;15.40;42.40;;;;;;5090309;28;20488;-64
2022/04/11 10:08:33;;;;;;;12.50;3.05;;;15.40;40.40;;;;;;5086699;28;20029;-63
2022/04/11 10:11:01;;;;;;;5.40;2.20;;;15.40;37.60;;;;;;5090325;28;20043;-63
2022/04/11 10:13:29;;;;;;;3.97;1.60;;;15.20;38.70;;;;;;5086266;28;20035;-63
2022/04/11 10:15:56;;;;;;;4.95;1.73;;;15.10;38.60;;;;;;5087028;28;20044;-63
2022/04/11 10:18:25;;;;;;;9.25;2.30;;;15.40;38.60;;;;;;5085513;28;20373;-63
2022/04/11 10:21:05;;;;;;;2.60;1.42;;;16.10;37.00;;;;;;5087458;28;20031;-64
2022/04/11 10:23:35;;;;;;;6.65;2.05;;;16.60;35.90;;;;;;5089604;28;20025;-64
2022/04/11 10:26:16;;;;;;;5.00;1.92;;;16.80;34.80;;;;;;5082453;28;20498;-65
2022/04/11 10:28:48;;;;;;;5.88;1.70;;;17.10;34.20;;;;;;5084521;28;20028;-64
2022/04/11 10:31:15;;;;;;;3.50;1.90;;;17.10;34.40;;;;;;5087995;28;20389;-64
2022/04/11 10:33:52;;;;;;;4.38;1.88;;;17.10;34.40;;;;;;5086241;28;20046;-63
2022/04/11 10:36:35;;;;;;;7.70;2.97;;;17.50;37.40;;;;;;5094574;28;20035;-63
2022/04/11 10:39:17;;;;;;;10.32;2.67;;;17.30;34.80;;;;;;5092026;28;20037;-63
2022/04/11 10:41:58;;;;;;;5.80;2.10;;;16.10;35.70;;;;;;5093608;28;20073;-63
2022/04/11 10:44:43;;;;;;;5.07;2.80;;;15.70;36.80;;;;;;5090919;28;20030;-63
2022/04/11 10:47:12;;;;;;;6.20;2.70;;;15.50;38.80;;;;;;5094420;28;20048;-63
2022/04/11 10:49:50;;;;;;;7.07;3.03;;;15.40;40.20;;;;;;5082765;28;20035;-62
2022/04/11 10:52:41;;;;;;;9.77;3.08;;;14.80;38.40;;;;;;5087241;28;20032;-62
2022/04/11 10:55:14;;;;;;;5.78;2.60;;;14.90;42.90;;;;;;5093939;28;20032;-62
2022/04/11 10:57:56;;;;;;;5.15;2.60;;;14.60;40.60;;;;;;5093458;28;20039;-63
2022/04/11 11:00:28;;;;;;;4.68;2.05;;;15.20;41.40;;;;;;5096170;28;20445;-63
2022/04/11 11:03:00;;;;;;;5.32;1.70;;;15.60;39.70;;;;;;5095625;28;20032;-63
2022/04/11 11:05:45;;;;;;;5.07;2.22;;;15.90;38.00;;;;;;5086787;28;20461;-63
2022/04/11 11:08:13;;;;;;;5.22;2.25;;;16.60;37.50;;;;;;5078479;28;20028;-63
2022/04/11 11:10:43;;;;;;;9.23;3.10;;;16.30;33.80;;;;;;5082537;28;20037;-62
2022/04/11 11:13:33;;;;;;;6.20;2.95;;;15.80;35.30;;;;;;5082234;28;20115;-62
2022/04/11 11:16:12;;;;;;;4.47;2.47;;;15.20;37.10;;;;;;5073214;28;20044;-63
2022/04/11 11:21:33;;;;;;;7.03;2.72;;;15.20;39.50;;;;;;5084648;28;20024;-63
2022/04/11 11:24:07;;;;;;;6.47;3.30;;;15.00;39.80;;;;;;5082633;28;20400;-62
2022/04/11 11:26:53;;;;;;;6.85;3.15;;;14.90;41.80;;;;;;5092564;28;20078;-62
2022/04/11 11:29:20;;;;;;;8.43;4.22;;;14.20;42.00;;;;;;5089253;28;20044;-62
2022/04/11 11:32:20;;;;;;;8.48;3.75;;;13.80;44.60;;;;;;5085500;28;20078;-62
2022/04/11 11:34:51;;;;;;;8.25;3.60;;;13.60;45.60;;;;;;5081581;28;20024;-62
2022/04/11 11:37:17;;;;;;;;;;;13.40;45.90;;;;;;5095274;28;20047;-62
2022/04/11 11:39:45;;;;;;;11.32;4.28;;;13.30;47.80;;;;;;5086403;28;19908;-62
2022/04/11 11:42:18;;;;;;;11.15;3.30;;;12.90;45.60;;;;;;5092048;28;20024;-62
2022/04/11 11:44:49;;;;;;;16.65;5.55;;;13.30;47.30;;;;;;5100538;28;20035;-62
2022/04/11 11:47:16;;;;;;;10.20;3.50;;;14.00;49.90;;;;;;5092348;28;20024;-62
2022/04/11 11:49:44;;;;;;;5.15;2.67;;;14.10;43.80;;;;;;5095646;28;20027;-62
2022/04/11 11:52:18;;;;;;;9.15;3.42;;;13.90;43.90;;;;;;5090161;28;20027;-62
2022/04/11 11:54:49;;;;;;;5.90;2.97;;;13.70;44.00;;;;;;5093779;28;20044;-62
2022/04/11 11:57:20;;;;;;;14.20;6.35;;;13.70;45.10;;;;;;5089091;28;20031;-61
2022/04/11 12:00:09;;;;;;;13.57;4.13;;;13.90;47.20;;;;;;5094288;28;20537;-61
2022/04/11 12:05:32;;;;;;;12.32;5.50;;;13.90;44.60;;;;;;5093627;28;20059;-61
2022/04/11 12:08:13;;;;;;;7.93;3.22;;;14.00;45.80;;;;;;5083718;28;20089;-62
2022/04/11 12:10:46;;;;;;;;;;;13.90;45.20;;;;;;5088426;28;20115;-62
2022/04/11 12:13:33;;;;;;;4.97;2.42;;;14.30;45.70;;;;;;5078962;28;19915;-62
2022/04/11 12:16:10;;;;;;;7.13;2.20;;;14.60;43.30;;;;;;5089601;28;20437;-62
2022/04/11 12:18:59;;;;;;;9.10;2.63;;;14.80;41.40;;;;;;5082556;28;20036;-62
2022/04/11 12:21:39;;;;;;;9.55;3.05;;;15.10;40.40;;;;;;5078934;28;20115;-62
2022/04/11 12:24:08;;;;;;;4.97;2.30;;;15.20;41.20;;;;;;5080079;28;20145;-62
2022/04/11 12:26:39;;;;;;;7.32;3.03;;;15.40;37.80;;;;;;5073335;28;20032;-62
2022/04/11 12:29:21;;;;;;;7.80;2.92;;;15.50;38.10;;;;;;5088704;28;20021;-62
2022/04/11 12:31:58;;;;;;;4.30;2.10;;;15.50;38.30;;;;;;5092058;28;20028;-62
2022/04/11 12:34:38;;;;;;;8.52;3.42;;;15.80;41.40;;;;;;5075784;28;20367;-62
2022/04/11 12:37:13;;;;;;;9.73;2.80;;;15.90;38.00;;;;;;5094755;28;20390;-62
2022/04/11 12:39:59;;;;;;;9.18;3.45;;;15.20;36.60;;;;;;5094573;28;20289;-62
2022/04/11 12:42:27;;;;;;;11.18;3.28;;;14.80;38.10;;;;;;5094003;28;20634;-62
2022/04/11 12:45:07;;;;;;;9.93;3.58;;;14.70;39.90;;;;;;5093433;28;20024;-63
2022/04/11 12:47:54;;;;;;;6.80;2.35;;;14.90;41.40;;;;;;5085812;28;20039;-63
2022/04/11 12:50:24;;;;;;;6.90;3.55;;;15.70;41.70;;;;;;5091379;28;20470;-63
2022/04/11 12:52:54;;;;;;;7.43;3.80;;;16.20;37.80;;;;;;5094344;28;20028;-63
2022/04/11 12:55:25;;;;;;;5.13;2.40;;;16.10;39.00;;;;;;5094956;28;20039;-63
2022/04/11 12:58:05;;;;;;;13.27;3.42;;;16.00;39.50;;;;;;5092907;28;20016;-63
2022/04/11 13:00:34;;;;;;;9.60;2.65;;;16.30;38.10;;;;;;5074783;28;20574;-63